createdAt,value
2023-02-18T00:00:39.617Z,55.90
2023-02-18T00:03:41.365Z,55.90
2023-02-18T00:06:42.710Z,55.90
2023-02-18T00:09:44.652Z,55.90
2023-02-18T00:12:45.893Z,56.00
2023-02-18T00:15:47.748Z,56.10
2023-02-18T00:18:49.060Z,55.70
2023-02-18T00:21:50.512Z,56.00
2023-02-18T00:24:52.515Z,56.00
2023-02-18T00:27:53.765Z,56.00
2023-02-18T00:30:55.040Z,55.90
2023-02-18T00:33:57.029Z,55.90
2023-02-18T00:36:58.251Z,55.90
2023-02-18T00:40:00.062Z,56.00
2023-02-18T00:43:01.281Z,56.00
2023-02-18T00:46:02.573Z,56.00
2023-02-18T00:49:04.095Z,56.00
2023-02-18T00:52:05.558Z,55.90
2023-02-18T00:55:08.589Z,56.00
2023-02-18T00:58:10.415Z,56.10
2023-02-18T01:01:11.985Z,56.00
2023-02-18T01:04:15.253Z,55.70
2023-02-18T01:07:16.524Z,56.10
2023-02-18T01:10:19.393Z,55.90
2023-02-18T01:13:21.000Z,56.00
2023-02-18T01:16:22.372Z,56.00
2023-02-18T01:19:23.608Z,56.00
2023-02-18T01:22:25.077Z,55.90
2023-02-18T01:25:27.213Z,55.90
2023-02-18T01:28:28.546Z,55.80
2023-02-18T01:31:29.944Z,56.00
2023-02-18T01:34:33.494Z,55.80
2023-02-18T01:37:34.719Z,55.80
2023-02-18T01:40:36.779Z,56.00
2023-02-18T01:43:38.439Z,55.80
2023-02-18T01:46:39.891Z,55.70
2023-02-18T01:49:42.495Z,55.80
2023-02-18T01:52:43.894Z,55.50
2023-02-18T01:55:45.918Z,55.90
2023-02-18T01:58:48.124Z,55.90
2023-02-18T02:01:49.566Z,55.70
2023-02-18T02:04:50.876Z,55.50
2023-02-18T02:07:53.754Z,55.80
2023-02-18T02:11:02.429Z,55.50
2023-02-18T02:14:10.584Z,55.50
2023-02-18T02:17:16.303Z,55.50
2023-02-18T02:20:32.408Z,55.50
2023-02-18T02:23:43.204Z,55.70
2023-02-18T02:26:59.600Z,55.70
2023-02-18T02:30:15.601Z,55.40
2023-02-18T02:33:31.729Z,55.80
2023-02-18T02:36:37.390Z,55.70
2023-02-18T02:39:43.050Z,55.90
2023-02-18T02:42:47.265Z,55.70
2023-02-18T02:45:54.133Z,55.80
2023-02-18T02:48:58.945Z,55.70
2023-02-18T02:52:02.601Z,55.70
2023-02-18T02:55:05.476Z,55.60
2023-02-18T02:58:06.958Z,55.40
2023-02-18T03:01:15.866Z,55.80
2023-02-18T03:04:24.535Z,55.50
2023-02-18T03:07:36.037Z,55.50
2023-02-18T03:10:43.032Z,55.70
2023-02-18T03:13:51.008Z,55.50
2023-02-18T03:16:58.837Z,55.50
2023-02-18T03:20:04.966Z,55.50
2023-02-18T03:23:08.687Z,55.50
2023-02-18T03:26:12.332Z,55.50
2023-02-18T03:29:15.290Z,55.60
2023-02-18T03:32:18.391Z,55.70
2023-02-18T03:35:20.129Z,55.50
2023-02-18T03:38:24.079Z,55.50
2023-02-18T03:41:25.624Z,55.60
2023-02-18T03:44:26.962Z,55.50
2023-02-18T03:47:28.237Z,55.60
2023-02-18T03:50:29.546Z,55.60
2023-02-18T03:53:31.374Z,55.50
2023-02-18T03:56:32.898Z,55.40
2023-02-18T03:59:34.313Z,55.30
2023-02-18T04:02:35.533Z,55.60
2023-02-18T04:05:36.774Z,55.40
2023-02-18T04:08:38.595Z,55.30
2023-02-18T04:11:40.388Z,55.50
2023-02-18T04:14:41.692Z,55.20
2023-02-18T04:17:42.935Z,55.40
2023-02-18T04:20:45.487Z,55.70
2023-02-18T04:23:47.326Z,55.20
2023-02-18T04:26:48.724Z,55.20
2023-02-18T04:29:50.280Z,55.30
2023-02-18T04:32:51.995Z,55.40
2023-02-18T04:35:53.257Z,55.20
2023-02-18T04:38:55.088Z,55.10
2023-02-18T04:41:56.354Z,55.40
2023-02-18T04:44:57.569Z,55.10
2023-02-18T04:47:58.829Z,55.20
2023-02-18T04:51:00.211Z,55.10
2023-02-18T04:54:02.117Z,55.10
2023-02-18T04:57:03.669Z,55.00
2023-02-18T05:00:06.416Z,55.20
2023-02-18T05:03:07.653Z,55.10
2023-02-18T05:06:09.249Z,55.30
2023-02-18T05:09:11.341Z,55.10
2023-02-18T05:12:12.659Z,55.30
2023-02-18T05:15:14.561Z,55.10
2023-02-18T05:18:15.782Z,55.40
2023-02-18T05:21:17.003Z,55.10
2023-02-18T05:24:18.835Z,55.10
2023-02-18T05:27:20.252Z,55.00
2023-02-18T05:30:21.600Z,55.00
2023-02-18T05:33:22.949Z,55.30
2023-02-18T05:36:24.239Z,55.20
2023-02-18T05:39:26.095Z,54.90
2023-02-18T05:42:27.378Z,54.90
2023-02-18T05:45:28.577Z,54.80
2023-02-18T05:48:29.816Z,55.00
2023-02-18T05:51:31.037Z,54.90
2023-02-18T05:54:33.369Z,55.10
2023-02-18T05:57:34.910Z,55.00
2023-02-18T06:00:36.267Z,54.90
2023-02-18T06:03:37.547Z,55.20
2023-02-18T06:06:38.776Z,55.10
2023-02-18T06:09:40.613Z,55.00
2023-02-18T06:12:41.858Z,55.10
2023-02-18T06:15:43.211Z,54.90
2023-02-18T06:18:44.490Z,54.90
2023-02-18T06:21:45.805Z,54.90
2023-02-18T06:24:47.671Z,55.10
2023-02-18T06:27:49.089Z,55.00
2023-02-18T06:30:50.461Z,55.10
2023-02-18T06:33:51.705Z,55.40
2023-02-18T06:36:53.015Z,55.00
2023-02-18T06:39:54.898Z,54.80
2023-02-18T06:42:56.820Z,55.00
2023-02-18T06:45:58.075Z,55.00
2023-02-18T06:48:59.414Z,55.20
2023-02-18T06:52:00.704Z,55.50
2023-02-18T06:55:02.588Z,55.30
2023-02-18T06:58:04.000Z,54.80
2023-02-18T07:01:05.508Z,54.90
2023-02-18T07:04:06.871Z,55.00
2023-02-18T07:07:08.208Z,55.10
2023-02-18T07:10:10.820Z,55.30
2023-02-18T07:13:12.204Z,55.00
2023-02-18T07:16:13.484Z,55.10
2023-02-18T07:19:15.104Z,55.20
2023-02-18T07:22:16.652Z,54.90
2023-02-18T07:25:18.590Z,55.10
2023-02-18T07:28:19.992Z,55.00
2023-02-18T07:31:21.528Z,55.00
2023-02-18T07:34:22.808Z,55.40
2023-02-18T07:37:24.047Z,55.10
2023-02-18T07:40:25.897Z,55.10
2023-02-18T07:43:27.165Z,55.10
2023-02-18T07:46:29.077Z,55.30
2023-02-18T07:49:30.664Z,55.20
2023-02-18T07:52:31.923Z,54.70
2023-02-18T07:55:48.490Z,55.10
2023-02-18T07:58:49.921Z,54.70
2023-02-18T08:01:51.303Z,55.00
2023-02-18T08:04:52.703Z,55.30
2023-02-18T08:07:54.035Z,54.80
2023-02-18T08:10:59.724Z,55.10
2023-02-18T08:14:02.372Z,55.10
2023-02-18T08:17:03.598Z,54.80
2023-02-18T08:20:05.745Z,54.90
2023-02-18T08:23:07.074Z,54.90
2023-02-18T08:26:09.734Z,54.60
2023-02-18T08:29:16.342Z,54.80
2023-02-18T08:32:17.693Z,54.90
2023-02-18T08:35:19.038Z,55.00
2023-02-18T08:38:20.575Z,54.80
2023-02-18T08:41:22.436Z,55.10
2023-02-18T08:44:23.724Z,55.50
2023-02-18T08:48:19.766Z,55.10
2023-02-18T08:50:46.303Z,54.70
2023-02-18T08:53:48.161Z,55.10
2023-02-18T08:56:53.319Z,54.70
2023-02-18T08:59:54.738Z,54.70
2023-02-18T09:02:56.014Z,54.50
2023-02-18T09:05:58.209Z,55.00
2023-02-18T09:08:59.577Z,54.70
2023-02-18T09:12:01.388Z,54.90
2023-02-18T09:15:04.059Z,55.10
2023-02-18T09:18:05.384Z,54.90
2023-02-18T09:21:08.700Z,54.50
2023-02-18T09:24:10.127Z,54.40
2023-02-18T09:27:12.073Z,54.70
2023-02-18T09:30:13.756Z,54.90
2023-02-18T09:33:15.256Z,54.30
2023-02-18T09:36:16.746Z,54.50
2023-02-18T09:39:19.283Z,54.50
2023-02-18T09:42:23.719Z,54.70
2023-02-18T09:45:25.091Z,54.50
2023-02-18T09:48:27.824Z,54.30
2023-02-18T09:51:30.514Z,54.20
2023-02-18T09:54:31.778Z,54.60
2023-02-18T09:57:37.327Z,54.30
2023-02-18T10:00:40.120Z,54.30
2023-02-18T10:03:43.060Z,53.90
2023-02-18T10:06:45.812Z,54.20
2023-02-18T10:09:48.211Z,54.00
2023-02-18T10:12:50.256Z,53.90
2023-02-18T10:15:52.427Z,54.20
2023-02-18T10:18:55.267Z,54.30
2023-02-18T10:21:56.782Z,54.00
2023-02-18T10:24:59.359Z,54.30
2023-02-18T10:28:01.331Z,54.00
2023-02-18T10:31:07.935Z,54.00
2023-02-18T10:34:13.770Z,54.60
2023-02-18T10:37:24.503Z,53.80
2023-02-18T10:40:29.131Z,54.00
2023-02-18T10:43:36.957Z,54.20
2023-02-18T10:46:42.540Z,53.90
2023-02-18T10:49:56.455Z,53.70
2023-02-18T10:53:00.910Z,53.60
2023-02-18T10:56:02.293Z,53.80
2023-02-18T10:59:10.697Z,53.70
2023-02-18T11:02:15.319Z,53.60
2023-02-18T11:05:19.349Z,53.80
2023-02-18T11:08:21.942Z,53.60
2023-02-18T11:11:24.950Z,53.50
2023-02-18T11:14:36.476Z,53.60
2023-02-18T11:17:37.862Z,53.50
2023-02-18T11:20:39.438Z,54.00
2023-02-18T11:23:45.684Z,53.50
2023-02-18T11:26:46.972Z,53.40
2023-02-18T11:29:49.762Z,53.80
2023-02-18T11:32:53.628Z,53.70
2023-02-18T11:35:55.932Z,53.60
2023-02-18T11:38:58.248Z,53.30
2023-02-18T11:42:02.756Z,53.40
2023-02-18T11:45:05.752Z,53.80
2023-02-18T11:48:08.252Z,53.70
2023-02-18T11:51:15.055Z,53.50
2023-02-18T11:54:26.012Z,53.50
2023-02-18T11:57:27.612Z,53.50
2023-02-18T12:00:35.804Z,53.20
2023-02-18T12:03:38.808Z,53.10
2023-02-18T12:06:44.509Z,53.10
2023-02-18T12:09:47.366Z,53.40
2023-02-18T12:12:51.885Z,53.10
2023-02-18T12:16:00.171Z,53.00
2023-02-18T12:19:06.717Z,53.10
2023-02-18T12:22:13.543Z,52.90
2023-02-18T12:25:23.382Z,53.10
2023-02-18T12:28:31.110Z,53.10
2023-02-18T12:31:40.231Z,53.10
2023-02-18T12:34:49.528Z,53.00
2023-02-18T12:37:58.657Z,53.00
2023-02-18T12:41:05.123Z,52.90
2023-02-18T12:44:16.700Z,53.00
2023-02-18T12:47:28.006Z,53.20
2023-02-18T12:50:38.836Z,52.90
2023-02-18T12:53:47.219Z,52.80
2023-02-18T12:56:54.378Z,52.80
2023-02-18T13:00:03.843Z,52.90
2023-02-18T13:03:20.021Z,53.00
2023-02-18T13:06:29.080Z,53.10
2023-02-18T13:09:36.813Z,52.70
2023-02-18T13:12:43.096Z,52.60
2023-02-18T13:15:47.667Z,52.90
2023-02-18T13:18:53.590Z,53.20
2023-02-18T13:21:57.900Z,53.00
2023-02-18T13:24:59.248Z,53.00
2023-02-18T13:28:09.098Z,53.00
2023-02-18T13:31:16.388Z,53.10
2023-02-18T13:34:23.340Z,52.80
2023-02-18T13:37:29.093Z,52.70
2023-02-18T13:40:31.244Z,52.70
2023-02-18T13:43:33.478Z,53.10
2023-02-18T13:46:41.805Z,52.80
2023-02-18T13:49:43.613Z,52.60
2023-02-18T13:52:45.101Z,53.00
2023-02-18T13:55:51.627Z,53.10
2023-02-18T13:58:55.158Z,52.60
2023-02-18T14:02:07.489Z,52.80
2023-02-18T14:05:20.847Z,52.60
2023-02-18T14:08:30.578Z,52.70
2023-02-18T14:11:34.416Z,52.30
2023-02-18T14:14:38.219Z,52.30
2023-02-18T14:17:42.363Z,52.60
2023-02-18T14:20:47.264Z,52.50
2023-02-18T14:23:57.191Z,52.30
2023-02-18T14:27:07.838Z,52.50
2023-02-18T14:30:15.824Z,52.50
2023-02-18T14:33:18.367Z,52.70
2023-02-18T14:36:24.769Z,52.50
2023-02-18T14:39:35.185Z,52.60
2023-02-18T14:42:42.120Z,52.30
2023-02-18T14:45:53.593Z,52.40
2023-02-18T14:49:08.559Z,52.20
2023-02-18T14:52:15.119Z,52.60
2023-02-18T14:55:18.442Z,52.40
2023-02-18T14:58:26.954Z,52.50
2023-02-18T15:01:29.409Z,52.40
2023-02-18T15:04:30.676Z,52.30
2023-02-18T15:07:32.560Z,52.50
2023-02-18T15:10:37.534Z,52.50
2023-02-18T15:13:43.356Z,52.50
2023-02-18T15:16:45.117Z,52.30
2023-02-18T15:19:48.280Z,52.40
2023-02-18T15:22:50.087Z,52.10
2023-02-18T15:25:52.310Z,52.50
2023-02-18T15:28:54.493Z,52.60
2023-02-18T15:31:57.219Z,52.30
2023-02-18T15:35:00.888Z,52.50
2023-02-18T15:38:03.781Z,52.50
2023-02-18T15:41:10.795Z,52.60
2023-02-18T15:44:18.325Z,52.50
2023-02-18T15:47:19.932Z,52.40
2023-02-18T15:50:22.717Z,52.30
2023-02-18T15:53:25.210Z,52.60
2023-02-18T15:56:29.861Z,52.40
2023-02-18T15:59:32.544Z,52.20
2023-02-18T16:02:33.885Z,52.30
2023-02-18T16:05:37.327Z,52.50
2023-02-18T16:08:40.252Z,52.20
2023-02-18T16:11:43.509Z,52.50
2023-02-18T16:14:46.041Z,52.10
2023-02-18T16:17:47.341Z,52.50
2023-02-18T16:20:54.109Z,52.30
2023-02-18T16:23:57.850Z,52.10
2023-02-18T16:26:59.798Z,52.20
2023-02-18T16:30:02.256Z,52.50
2023-02-18T16:33:03.638Z,52.30
2023-02-18T16:36:04.997Z,52.30
2023-02-18T16:39:06.788Z,52.20
2023-02-18T16:42:09.199Z,52.50
2023-02-18T16:45:11.267Z,52.20
2023-02-18T16:48:16.483Z,52.60
2023-02-18T16:51:20.587Z,52.20
2023-02-18T16:54:22.434Z,52.60
2023-02-18T16:57:23.674Z,52.40
2023-02-18T17:00:25.010Z,52.40
2023-02-18T17:03:26.354Z,52.30
2023-02-18T17:06:28.340Z,52.40
2023-02-18T17:09:30.168Z,52.30
2023-02-18T17:12:31.603Z,52.40
2023-02-18T17:15:33.752Z,52.30
2023-02-18T17:18:35.038Z,52.60
2023-02-18T17:21:36.298Z,52.50
2023-02-18T17:24:38.119Z,52.50
2023-02-18T17:27:39.340Z,52.30
2023-02-18T17:30:41.253Z,52.70
2023-02-18T17:33:42.965Z,52.20
2023-02-18T17:36:44.737Z,52.20
2023-02-18T17:39:46.551Z,52.20
2023-02-18T17:42:48.214Z,52.70
2023-02-18T17:45:50.769Z,52.50
2023-02-18T17:48:52.006Z,52.40
2023-02-18T17:51:53.426Z,52.50
2023-02-18T17:54:55.191Z,52.70
2023-02-18T17:57:56.866Z,52.50
2023-02-18T18:00:58.161Z,52.80
2023-02-18T18:03:59.603Z,52.50
2023-02-18T18:07:00.869Z,52.50
2023-02-18T18:10:02.726Z,52.50
2023-02-18T18:13:05.502Z,52.50
2023-02-18T18:16:09.232Z,52.40
2023-02-18T18:19:10.463Z,52.80
2023-02-18T18:22:11.716Z,52.70
2023-02-18T18:25:18.193Z,52.60
2023-02-18T18:28:19.698Z,52.40
2023-02-18T18:31:21.499Z,52.70
2023-02-18T18:34:22.861Z,52.50
2023-02-18T18:37:24.120Z,52.60
2023-02-18T18:40:27.592Z,52.70
2023-02-18T18:43:34.812Z,52.80
2023-02-18T18:46:36.064Z,52.60
2023-02-18T18:49:38.155Z,52.60
2023-02-18T18:52:42.575Z,52.70
2023-02-18T18:55:45.046Z,52.60
2023-02-18T18:58:46.281Z,52.80
2023-02-18T19:01:47.629Z,52.70
2023-02-18T19:04:49.052Z,52.90
2023-02-18T19:07:50.345Z,52.50
2023-02-18T19:10:53.385Z,52.90
2023-02-18T19:13:54.999Z,52.50
2023-02-18T19:16:56.456Z,52.80
2023-02-18T19:19:57.787Z,53.10
2023-02-18T19:22:59.286Z,52.80
2023-02-18T19:26:01.128Z,52.80
2023-02-18T19:29:02.395Z,52.90
2023-02-18T19:32:04.182Z,52.80
2023-02-18T19:35:05.712Z,52.80
2023-02-18T19:38:08.422Z,52.90
2023-02-18T19:41:11.804Z,52.80
2023-02-18T19:44:13.398Z,52.60
2023-02-18T19:47:14.760Z,53.00
2023-02-18T19:50:16.304Z,53.00
2023-02-18T19:53:17.551Z,52.80
2023-02-18T19:56:20.472Z,53.40
2023-02-18T19:59:21.734Z,52.90
2023-02-18T20:02:24.149Z,52.80
2023-02-18T20:05:25.479Z,52.90
2023-02-18T20:08:26.738Z,53.20
2023-02-18T20:11:30.043Z,53.20
2023-02-18T20:14:31.544Z,50.30
2023-02-18T20:17:32.934Z,53.00
2023-02-18T20:20:34.201Z,53.10
2023-02-18T20:23:35.485Z,53.00
2023-02-18T20:26:37.304Z,53.10
2023-02-18T20:29:39.004Z,53.10
2023-02-18T20:32:40.268Z,53.00
2023-02-18T20:35:41.594Z,53.20
2023-02-18T20:38:42.837Z,53.30
2023-02-18T20:41:45.231Z,53.10
2023-02-18T20:44:48.498Z,53.30
2023-02-18T20:47:50.101Z,53.10
2023-02-18T20:50:51.353Z,53.10
2023-02-18T20:53:52.661Z,53.20
2023-02-18T20:56:54.482Z,53.20
2023-02-18T20:59:57.303Z,53.10
2023-02-18T21:02:58.558Z,52.90
2023-02-18T21:06:00.592Z,53.20
2023-02-18T21:09:01.885Z,53.40
2023-02-18T21:12:03.961Z,53.30
2023-02-18T21:15:05.844Z,53.00
2023-02-18T21:18:07.245Z,52.90
2023-02-18T21:21:09.396Z,53.50
2023-02-18T21:24:11.161Z,53.10
2023-02-18T21:27:13.005Z,53.30
2023-02-18T21:30:14.328Z,53.00
2023-02-18T21:33:15.592Z,53.20
2023-02-18T21:36:17.246Z,53.20
2023-02-18T21:39:18.475Z,53.20
2023-02-18T21:42:20.313Z,53.50
2023-02-18T21:45:21.861Z,53.80
2023-02-18T21:48:36.374Z,52.50
2023-02-18T21:51:53.143Z,53.00
2023-02-18T21:54:54.544Z,53.10
2023-02-18T21:57:56.378Z,53.50
2023-02-18T22:00:57.893Z,53.30
2023-02-18T22:03:59.149Z,53.70
2023-02-18T22:07:02.471Z,53.50
2023-02-18T22:10:03.891Z,53.30
2023-02-18T22:13:05.758Z,53.20
2023-02-18T22:16:07.245Z,53.30
2023-02-18T22:19:09.500Z,53.40
2023-02-18T22:22:11.118Z,53.10
2023-02-18T22:25:12.499Z,53.50
2023-02-18T22:28:14.432Z,53.90
2023-02-18T22:31:15.799Z,53.70
2023-02-18T22:34:17.099Z,53.50
2023-02-18T22:37:18.433Z,53.50
2023-02-18T22:40:19.710Z,53.50
2023-02-18T22:43:21.555Z,53.60
2023-02-18T22:46:23.224Z,53.60
2023-02-18T22:49:24.828Z,53.40
2023-02-18T22:52:26.124Z,53.80
2023-02-18T22:55:27.524Z,53.50
2023-02-18T22:58:29.473Z,53.70
2023-02-18T23:01:32.063Z,53.70
2023-02-18T23:04:33.398Z,53.60
2023-02-18T23:07:34.638Z,53.60
2023-02-18T23:10:35.987Z,53.60
2023-02-18T23:13:37.937Z,53.80
2023-02-18T23:16:48.690Z,53.60
2023-02-18T23:19:51.779Z,53.60
2023-02-18T23:22:53.060Z,54.00
2023-02-18T23:25:59.581Z,53.70
2023-02-18T23:29:01.549Z,53.40
2023-02-18T23:32:03.211Z,53.50
2023-02-18T23:35:04.666Z,53.60
2023-02-18T23:38:06.009Z,53.80
2023-02-18T23:41:07.543Z,53.80
2023-02-18T23:44:11.509Z,53.80
2023-02-18T23:47:12.873Z,53.50
2023-02-18T23:50:15.506Z,53.70
2023-02-18T23:53:16.796Z,52.60
2023-02-18T23:56:19.017Z,54.00
2023-02-18T23:59:20.887Z,53.50
